Flight Track Log - Related Links

Times and Time Zones

All times are in EDT time to prevent confusion due to time zone crossing. See the EJA729 flight status page for this flight to view local times or setup timezone preferences in your user account.

Time Position Orientation Groundspeed Altitude Reporting Facility
EDT Latitude Longitude Course Direction KTS MPH feet Rate Location/Type
Tue 04:30:49 PM 37.9833 -121.1667 46° Northeast 282 325 6,300  Level Northern Cal TRACON
Tue 04:31:55 PM 38.0667 -121.0833 38° Northeast 318 366 8,900 1,857 Climbing Northern Cal TRACON
Tue 04:32:55 PM 38.1167 -121.0167 46° Northeast 310 357 10,200 1,895 Climbing Northern Cal TRACON
Tue 04:33:49 PM 38.2000 -120.9333 38° Northeast 372 428 12,500 1,947 Climbing Northern Cal TRACON
Tue 04:34:49 PM 38.2667 -120.8500 44° Northeast 401 461 13,900 1,900 Climbing Northern Cal TRACON
Tue 04:35:00 PM 38.4467 -120.5867 38° Northeast  Level FlightAware Approximate
Tue 04:35:49 PM 38.3667 -120.7333 42° Northeast 435 501 16,300  Level Northern Cal TRACON
Tue 04:37:17 PM 38.4850 -120.5881 44° Northeast 446 513 19,000 1,480 Climbing Oakland Center
Tue 04:38:19 PM 38.5817 -120.4731 43° Northeast 473 544 20,000 1,317 Climbing Oakland Center
Tue 04:39:20 PM 38.6806 -120.3556 43° Northeast 485 558 21,700 1,672 Climbing Oakland Center
Tue 04:40:21 PM 38.7797 -120.2364 43° Northeast 489 563 23,400 1,659 Climbing Oakland Center
Tue 04:41:23 PM 38.8808 -120.1142 43° Northeast 498 573 25,100 1,561 Climbing Oakland Center
Tue 04:42:24 PM 38.9839 -119.9914 43° Northeast 502 578 26,600 1,623 Climbing Oakland Center
Tue 04:43:25 PM 39.1083 -119.8408 43° Northeast 510 587 28,400 1,610 Climbing Oakland Center
Tue 04:44:27 PM 39.2153 -119.7122 43° Northeast 522 601 29,900 1,512 Climbing Oakland Center
Tue 04:45:28 PM 39.3206 -119.5844 43° Northeast 520 598 31,500 1,475 Climbing Oakland Center
Tue 04:46:29 PM 39.4267 -119.4547 43° Northeast 522 601 32,900 1,463 Climbing Oakland Center
Tue 04:47:31 PM 39.5297 -119.3250 44° Northeast 515 593 34,500 1,512 Climbing Oakland Center
Tue 04:48:32 PM 39.6347 -119.1947 44° Northeast 517 595 36,000 1,475 Climbing Oakland Center
Tue 04:49:33 PM 39.7386 -119.0667 43° Northeast 511 588 37,500 1,415 Climbing Oakland Center
Tue 04:50:35 PM 39.8419 -118.9375 44° Northeast 509 586 38,900 726 Climbing Oakland Center
Tue 04:51:37 PM 39.9464 -118.8061 44° Northeast 516 594 39,000 49 Climbing Oakland Center
Tue 04:52:37 PM 40.0531 -118.6686 45° Northeast 533 613 39,000  Level Oakland Center
Tue 04:53:39 PM 40.1419 -118.5097 54° Northeast 542 624 39,000  Level Oakland Center
Tue 04:54:32 PM 40.1917 -118.3344 70° East 544 626 39,000  Level Salt Lake Center
Tue 04:55:33 PM 40.2408 -118.1553 70° East 546 628 39,000  Level Salt Lake Center
Tue 04:56:35 PM 40.2978 -117.9464 70° East 546 628 39,000  Level Salt Lake Center
Tue 04:57:37 PM 40.3464 -117.7664 70° East 546 628 39,000  Level Salt Lake Center
Tue 04:58:39 PM 40.4019 -117.5561 71° East 546 628 39,000  Level Salt Lake Center
Tue 04:59:40 PM 40.4697 -117.3867 62° Northeast 551 634 39,000  Level Salt Lake Center
Tue 05:00:42 PM 40.5536 -117.2297 55° Northeast 545 627 39,000  Level Salt Lake Center
Tue 05:01:44 PM 40.6506 -117.0411 56° Northeast 549 632 39,000  Level Salt Lake Center
Tue 05:02:46 PM 40.7336 -116.8806 56° Northeast 548 631 39,000  Level Salt Lake Center
Tue 05:03:47 PM 40.8303 -116.6933 56° Northeast 549 632 39,000  Level Salt Lake Center
Tue 05:04:49 PM 40.9133 -116.5317 56° Northeast 551 634 39,000  Level Salt Lake Center
Tue 05:05:51 PM 40.9958 -116.3714 56° Northeast 551 634 39,000  Level Salt Lake Center
Tue 05:06:53 PM 41.0894 -116.1836 56° Northeast 548 631 39,000  Level Salt Lake Center
Tue 05:07:55 PM 41.1719 -116.0214 56° Northeast 551 634 39,000  Level Salt Lake Center
Tue 05:08:56 PM 41.2667 -115.8328 56° Northeast 550 633 39,000  Level Salt Lake Center
Tue 05:09:58 PM 41.3453 -115.6700 57° Northeast 548 631 39,000  Level Salt Lake Center
Tue 05:11:00 PM 41.4406 -115.4797 56° Northeast 551 634 39,000  Level Salt Lake Center
Tue 05:12:02 PM 41.5206 -115.3161 57° Northeast 551 634 39,000  Level Salt Lake Center
Tue 05:13:04 PM 41.6008 -115.1517 57° Northeast 551 634 39,000  Level Salt Lake Center
Tue 05:14:05 PM 41.6956 -114.9592 57° Northeast 553 636 39,000  Level Salt Lake Center
Tue 05:15:07 PM 41.7747 -114.7936 57° Northeast 552 635 39,000  Level Salt Lake Center
Tue 05:16:09 PM 41.8697 -114.5997 57° Northeast 556 640 39,000  Level Salt Lake Center
Tue 05:17:11 PM 41.9522 -114.4250 58° Northeast 551 634 39,000  Level Salt Lake Center
Tue 05:18:13 PM 42.0356 -114.2500 57° Northeast 554 638 39,000  Level Salt Lake Center
Tue 05:19:15 PM 42.1181 -114.0756 57° Northeast 554 638 39,000  Level Salt Lake Center
Tue 05:20:17 PM 42.2011 -113.9003 57° Northeast 555 639 39,000  Level Salt Lake Center
Tue 05:21:19 PM 42.2828 -113.7242 58° Northeast 553 636 39,000  Level Salt Lake Center
Tue 05:22:21 PM 42.3803 -113.5125 58° Northeast 553 636 39,000  Level Salt Lake Center
Tue 05:23:23 PM 42.4622 -113.3361 58° Northeast 554 638 39,000  Level Salt Lake Center
Tue 05:24:25 PM 42.5439 -113.1597 58° Northeast 552 635 39,000  Level Salt Lake Center
Tue 05:25:27 PM 42.6247 -112.9817 58° Northeast 553 636 39,000 -968 Level Salt Lake Center
Tue 05:26:29 PM 42.7083 -112.7989 58° Northeast 544 626 37,000 -2,226 Descending Salt Lake Center
Tue 05:27:31 PM 42.7903 -112.6167 58° Northeast 511 588 34,400 -1,935 Descending Salt Lake Center
Tue 05:28:33 PM 42.8578 -112.4672 58° Northeast 492 566 33,000 -677 Descending Salt Lake Center
Tue 05:29:35 PM 42.9236 -112.3197 59° Northeast 479 551 33,000 -387 Level Salt Lake Center
Tue 05:30:37 PM 43.0100 -112.1283 58° Northeast 523 602 32,200 -1,403 Descending Salt Lake Center
Tue 05:31:39 PM 43.0797 -111.9681 59° Northeast 520 598 30,100 -2,565 Descending Salt Lake Center
Tue 05:32:41 PM 43.1597 -111.7831 59° Northeast 508 585 26,900 -3,048 Descending Salt Lake Center
Tue 05:33:43 PM 43.2314 -111.6197 59° Northeast 519 597 23,800 -3,145 Descending Salt Lake Center
Tue 05:34:45 PM 43.3114 -111.4331 59° Northeast 513 590 20,400 -3,000 Descending Salt Lake Center
Tue 05:35:47 PM 43.3736 -111.2908 59° Northeast 463 533 17,600 -1,645 Descending Salt Lake Center
Tue 05:36:49 PM 43.4325 -111.1519 60° Northeast 425 489 17,000 -290 Descending Salt Lake Center
Tue 05:37:51 PM 43.4875 -111.0236 59° Northeast 394 453 17,000 -48 Level Salt Lake Center
Tue 05:38:53 PM 43.5472 -110.8825 60° Northeast 366 421 16,900 -968 Descending Salt Lake Center
Tue 05:39:55 PM 43.5911 -110.7778 60° Northeast 333 383 15,000 -919 Descending Salt Lake Center
Tue 05:40:57 PM 43.6344 -110.6750 60° Northeast 331 381 15,000  Level Salt Lake Center
Tue 05:41:59 PM 43.7033 -110.5536 52° Northeast 336 387 15,000  Level Salt Lake Center
Tue 05:43:01 PM 43.7383 -110.4403 67° East 333 383 15,000 -484 Level Salt Lake Center
Tue 05:44:03 PM 43.7408 -110.3156 88° East 328 377 14,000 -484 Descending Salt Lake Center
Tue 05:45:05 PM 43.7739 -110.2197 64° Northeast 305 351 14,000 48 Level Salt Lake Center
Tue 05:46:07 PM 43.8381 -110.2689 331° Northwest 284 327 14,100  Climbing Salt Lake Center
Tue 05:47:09 PM 43.8236 -110.3644 258° West 272 313 14,000 -629 Descending Salt Lake Center
Tue 05:48:11 PM 43.8183 -110.4889 267° West 271 312 12,800 -1,500 Descending Salt Lake Center
Tue 05:49:13 PM 43.8028 -110.5675 255° West 225 259 10,900 -1,452 Descending Salt Lake Center
Tue 05:50:15 PM 43.7711 -110.6342 237° Southwest 211 243 9,800 -1,065 Descending Salt Lake Center
Tue 05:51:17 PM 43.7242 -110.6792 215° Southwest 209 241 8,700 -968 Descending Salt Lake Center
Tue 05:52:19 PM 43.6789 -110.7031 201° Southwest 188 216 7,800 -823 Descending Salt Lake Center
Tue 05:53:21 PM 43.6372 -110.7233 199° South 172 198 7,000 -774 Descending Salt Lake Center

Login

Don't have an account? Register now (free) for customized features, flight alerts, and more!